Latest Weather Observations for Badgingarra

IDW60801

Issued at 6:23 pm WST Tuesday 19 June 2018 (issued every 10 minutes, with the page automatically refreshed every 10 minutes)

About weather observations | Map of weather stations | Latest weather observations for WA | Other Formats
Station Details ID: 009037 Name: BADGINGARRA RESEARCH STN Lat: -30.34 Lon: 115.54 Height: 275.0 m
Data from the previous 72 hours. | See also: Recent months at Badgingarra
Date/Time
WST
Temp
°C
App
Temp
°C
Dew
Point
°C
Rel
Hum
%
Delta-T
°C
Wind Press
QNH
hPa
Press
MSL
hPa
Rain since
9am
mm
Dir  Spd
km/h
Gust
km/h
Spd
kts
Gust
kts
19/06:00pm 12.6 11.0 10.3 86 1.2 WSW 9 11 5 6 - - 2.2
19/05:30pm 13.7 14.2 11.6 87 1.1 CALM 0 0 0 0 - - 2.2
19/05:00pm 14.0 13.5 12.0 88 1.1 ESE 6 7 3 4 - - 2.2
19/04:30pm 14.5 13.8 12.0 85 1.4 SE 7 11 4 6 - - 2.2
19/04:00pm 14.8 14.9 12.8 88 1.1 NNE 4 4 2 2 - - 2.2
19/03:30pm 14.1 14.5 12.5 90 0.9 SE 2 4 1 2 - - 2.2
19/03:00pm 13.6 12.6 12.3 92 0.7 S 9 13 5 7 - - 2.2
19/02:30pm 16.0 15.5 12.0 77 2.2 S 6 9 3 5 - - 0.2
19/02:00pm 16.8 15.1 11.3 70 3.0 SW 11 17 6 9 - - 0.0
19/01:30pm 15.1 12.2 10.9 76 2.3 SW 17 26 9 14 - - 0.0
19/01:00pm 16.1 14.5 10.2 68 3.1 WSW 9 19 5 10 - - 0.0
19/12:30pm 16.1 14.6 10.6 70 3.0 WSW 9 17 5 9 - - 0.0
19/12:00pm 16.8 15.3 10.4 66 3.4 W 9 17 5 9 - - 0.0
19/11:30am 16.0 14.9 9.9 67 3.2 N 6 9 3 5 - - 0.0
19/11:00am 15.5 14.7 9.6 68 3.1 N 4 7 2 4 - - 0.0
19/10:30am 13.9 13.5 9.9 77 2.1 SW 2 7 1 4 - - 0.0
19/10:00am 12.9 11.3 8.8 76 2.1 N 7 9 4 5 - - 0.0
19/09:30am 10.9 9.9 8.8 87 1.1 N 4 6 2 3 - - 0.0
19/09:00am 10.4 9.1 7.8 84 1.3 NNE 4 6 2 3 - - 0.4
19/08:30am 9.3 7.4 7.4 88 0.9 NNE 7 9 4 5 - - 0.4
19/08:00am 8.2 6.2 7.1 93 0.5 N 7 9 4 5 - - 0.4
19/07:30am 6.3 4.1 5.3 93 0.4 N 6 7 3 4 - - 0.4
19/07:00am 5.8 3.3 4.8 93 0.4 NNE 7 9 4 5 - - 0.4
19/06:30am 5.7 3.3 4.3 91 0.6 N 6 7 3 4 - - 0.4
19/06:00am 6.9 5.1 5.4 90 0.7 N 4 6 2 3 - - 0.4
19/05:30am 7.3 4.6 5.6 89 0.8 N 9 13 5 7 - - 0.4
19/05:00am 8.2 6.2 6.3 88 0.9 N 6 6 3 3 - - 0.4
19/04:30am 8.1 6.4 5.9 86 1.0 N 4 6 2 3 - - 0.4
19/04:00am 8.6 7.9 7.1 90 0.7 CALM 0 0 0 0 - - 0.4
19/03:30am 7.7 6.0 6.0 89 0.8 N 4 6 2 3 - - 0.4
19/03:00am 6.5 4.3 5.1 91 0.6 N 6 6 3 3 - - 0.4
19/02:30am 7.7 6.5 6.5 92 0.6 SSW 2 4 1 2 - - 0.4
19/02:00am 6.2 4.6 4.5 89 0.7 N 2 6 1 3 - - 0.4
19/01:30am 9.5 6.4 7.4 87 1.0 SSW 13 19 7 10 - - 0.4
19/01:00am 6.0 4.8 4.6 91 0.6 CALM 0 2 0 1 - - 0.4
19/12:30am 6.7 4.3 5.2 90 0.7 SSW 7 7 4 4 - - 0.4
19/12:00am 5.9 3.5 4.2 89 0.7 SSW 6 6 3 3 - - 0.4
 
Date/Time
WST
Temp
°C
App
Temp
°C
Dew
Point
°C
Rel
Hum
%
Delta-T
°C
Wind Press
QNH
hPa
Press
MSL
hPa
Rain since
9am
mm
Dir  Spd
km/h
Gust
km/h
Spd
kts
Gust
kts
18/11:30pm 6.8 4.4 5.4 91 0.6 SSW 7 7 4 4 - - 0.4
18/11:00pm 6.9 3.8 5.7 92 0.5 SSW 11 13 6 7 - - 0.4
18/10:30pm 7.6 4.9 5.6 87 0.9 SW 9 11 5 6 - - 0.4
18/10:00pm 7.4 3.9 5.4 87 0.9 SSW 13 15 7 8 - - 0.4
18/09:30pm 7.2 4.0 5.3 88 0.9 SSW 11 13 6 7 - - 0.4
18/09:00pm 7.8 4.7 5.6 86 1.0 SW 11 13 6 7 - - 0.4
18/08:30pm 7.9 4.8 5.7 86 1.0 SSW 11 13 6 7 - - 0.4
18/08:00pm 8.2 4.8 6.0 86 1.0 SSW 13 15 7 8 - - 0.4
18/07:30pm 8.6 5.6 6.1 84 1.2 SW 11 13 6 7 - - 0.4
18/07:00pm 9.0 5.8 7.0 87 1.0 SW 13 15 7 8 - - 0.4
18/06:30pm 9.3 6.9 6.9 85 1.1 SW 9 11 5 6 - - 0.4
18/06:00pm 10.2 7.4 7.1 81 1.5 SW 11 13 6 7 - - 0.4
18/05:30pm 12.0 8.1 7.3 73 2.3 SW 17 22 9 12 - - 0.4
18/05:00pm 12.9 9.1 7.4 69 2.7 SW 17 24 9 13 - - 0.4
18/04:30pm 13.6 9.2 6.7 63 3.4 SW 19 26 10 14 - - 0.4
18/04:00pm 14.0 9.2 7.3 64 3.3 SW 22 30 12 16 - - 0.4
18/03:30pm 14.3 8.8 7.6 64 3.4 SW 26 39 14 21 - - 0.4
18/03:00pm 14.9 10.4 8.4 65 3.3 SW 22 30 12 16 - - 0.4
18/02:30pm 15.8 10.0 8.1 60 3.9 SW 28 39 15 21 - - 0.4
18/02:00pm 15.5 8.8 7.3 58 4.1 SW 32 44 17 24 - - 0.4
18/01:30pm 13.2 7.3 9.1 76 2.1 SW 30 46 16 25 - - 0.4
18/01:06pm 14.0 8.4 11.5 85 1.4 WSW 32 50 17 27 - - 0.2
18/01:00pm 13.8 7.0 9.3 74 2.3 WSW 35 50 19 27 - - 0.2
18/12:30pm 14.8 9.4 9.6 71 2.7 WSW 28 44 15 24 - - 0.2
18/12:00pm 16.0 9.7 11.0 72 2.7 WSW 35 46 19 25 - - 0.2
18/11:30am 14.4 10.7 11.4 82 1.6 SW 22 30 12 16 - - 0.2
18/11:00am 14.2 8.4 9.4 73 2.5 WSW 30 48 16 26 - - 0.0
18/10:57am 15.0 9.8 10.4 74 2.4 WSW 28 48 15 26 - - 0.0
18/10:30am 14.6 10.2 10.4 76 2.2 WSW 24 32 13 17 - - 0.0
18/10:00am 13.7 10.2 10.9 83 1.5 SW 20 33 11 18 - - 0.0
18/09:30am 12.9 9.7 11.1 89 1.0 WSW 19 28 10 15 - - 0.0
18/09:00am 12.4 11.3 11.9 97 0.3 W 9 17 5 9 - - 7.8
18/08:30am 12.1 11.0 12.1 100 0.0 W 9 15 5 8 - - 7.8
18/08:00am 11.8 10.3 11.8 100 0.0 WNW 11 15 6 8 - - 7.8
18/07:30am 12.2 10.4 12.2 100 0.0 W 13 17 7 9 - - 7.8
18/07:07am 12.3 9.2 12.3 100 0.0 WSW 20 37 11 20 - - 7.6
18/07:00am 12.8 11.6 12.8 100 0.0 W 11 17 6 9 - - 7.2
18/06:30am 13.0 12.6 13.0 100 0.0 NW 7 11 4 6 - - 7.0
18/06:00am 12.9 12.7 12.9 100 0.0 NW 6 7 3 4 - - 7.0
18/05:30am 13.0 12.6 13.0 100 0.0 WSW 7 11 4 6 - - 7.0
18/05:00am 13.0 10.7 13.0 100 0.0 WSW 17 28 9 15 - - 7.0
18/04:30am 13.1 10.3 13.1 100 0.0 WSW 20 28 11 15 - - 6.4
18/04:00am 13.4 9.9 13.4 100 0.0 WSW 24 39 13 21 - - 5.4
18/03:30am 14.2 10.5 14.0 99 0.1 WSW 26 35 14 19 - - 3.4
18/03:00am 14.6 11.4 14.3 98 0.2 WSW 24 32 13 17 - - 3.2
18/02:30am 15.2 12.9 14.6 96 0.3 WNW 20 28 11 15 - - 2.6
18/02:00am 15.6 13.6 13.8 89 1.0 NNW 17 26 9 14 - - 0.0
18/01:30am 15.4 13.2 13.2 87 1.2 NNW 17 26 9 14 - - 0.0
18/01:00am 15.9 13.1 11.5 75 2.4 NW 17 22 9 12 - - 0.0
18/12:30am 15.5 12.5 10.7 73 2.6 N 17 20 9 11 - - 0.0
18/12:00am 15.4 13.1 10.6 73 2.6 N 13 19 7 10 - - 0.0
 
Date/Time
WST
Temp
°C
App
Temp
°C
Dew
Point
°C
Rel
Hum
%
Delta-T
°C
Wind Press
QNH
hPa
Press
MSL
hPa
Rain since
9am
mm
Dir  Spd
km/h
Gust
km/h
Spd
kts
Gust
kts
17/11:30pm 15.5 12.8 10.3 71 2.8 N 15 19 8 10 - - 0.0
17/11:00pm 14.9 12.4 9.7 71 2.7 N 13 17 7 9 - - 0.0
17/10:30pm 15.1 12.5 9.2 68 3.1 N 13 19 7 10 - - 0.0
17/10:00pm 14.7 12.2 8.2 65 3.3 N 11 13 6 7 - - 0.0
17/09:30pm 14.1 12.2 6.7 61 3.6 NW 6 7 3 4 - - 0.0
17/09:00pm 12.5 10.2 4.7 59 3.6 N 6 9 3 5 - - 0.0
17/08:30pm 13.2 11.1 4.1 54 4.2 N 4 6 2 3 - - 0.0
17/08:00pm 13.8 12.1 4.1 52 4.5 N 2 4 1 2 - - 0.0
17/07:30pm 13.6 11.2 4.2 53 4.4 NNE 6 7 3 4 - - 0.0
17/07:00pm 14.7 13.0 3.8 48 5.1 NNE 2 6 1 3 - - 0.0
17/06:30pm 15.4 12.7 3.9 46 5.4 NNW 7 11 4 6 - - 0.0
17/06:00pm 16.6 12.8 3.7 42 6.1 NW 13 15 7 8 - - 0.0
17/05:30pm 17.2 13.4 3.8 41 6.3 NW 13 15 7 8 - - 0.0
17/05:00pm 19.7 16.2 3.4 34 7.8 NW 11 15 6 8 - - 0.0
17/04:30pm 21.6 17.5 4.2 32 8.6 NW 15 22 8 12 - - 0.0
17/04:00pm 22.4 17.2 3.5 29 9.2 NNW 20 26 11 14 - - 0.0
17/03:30pm 22.8 17.6 3.4 28 9.5 NNW 20 30 11 16 - - 0.0
17/03:00pm 22.9 16.1 2.9 27 9.7 N 28 39 15 21 - - 0.0
17/02:30pm 23.1 15.9 3.1 27 9.7 NNW 30 41 16 22 - - 0.0
17/02:00pm 23.0 15.9 3.5 28 9.6 NNW 30 39 16 21 - - 0.0
17/01:30pm 22.6 15.3 2.7 27 9.6 N 30 41 16 22 - - 0.0
17/01:00pm 22.7 17.1 5.2 32 8.8 N 24 35 13 19 - - 0.0
17/12:30pm 21.9 16.2 4.9 33 8.5 N 24 30 13 16 - - 0.0
17/12:00pm 21.1 15.2 3.8 32 8.4 N 24 33 13 18 - - 0.0
17/11:30am 19.8 13.8 3.5 34 7.8 N 24 33 13 18 - - 0.0
17/11:00am 18.6 12.8 4.4 39 6.9 N 24 32 13 17 - - 0.0
17/10:30am 17.4 12.0 4.7 43 6.1 N 22 28 12 15 - - 0.0
17/10:00am 15.9 10.4 4.0 45 5.6 N 22 32 12 17 - - 0.0
17/09:30am 14.9 9.8 4.0 48 5.1 N 20 32 11 17 - - 0.0
17/09:00am 13.5 8.3 3.3 50 4.6 N 20 28 11 15 - - 0.0
17/08:30am 11.8 8.3 3.3 56 3.8 NNE 11 24 6 13 - - 0.0
17/08:00am 10.5 7.3 3.3 61 3.2 NNE 9 15 5 8 - - 0.0
17/07:30am 9.6 6.9 2.5 61 3.1 NNE 6 9 3 5 - - 0.0
17/07:00am 9.4 6.1 2.7 63 2.9 NE 9 19 5 10 - - 0.0
17/06:30am 8.9 7.3 2.5 64 2.7 CALM 0 4 0 2 - - 0.0
17/06:00am 10.4 7.1 2.7 59 3.4 NE 9 15 5 8 - - 0.0
17/05:30am 9.8 5.8 2.9 62 3.0 NNE 13 20 7 11 - - 0.0
17/05:00am 10.1 5.7 2.7 60 3.2 NNE 15 24 8 13 - - 0.0
17/04:30am 9.9 5.9 2.7 61 3.1 NNE 13 20 7 11 - - 0.0
17/04:00am 10.1 5.4 2.9 61 3.1 NNE 17 22 9 12 - - 0.0
17/03:30am 10.6 5.3 2.9 59 3.4 NNE 20 28 11 15 - - 0.0
17/03:00am 10.5 5.8 3.1 60 3.3 NNE 17 26 9 14 - - 0.0
17/02:30am 9.9 5.9 2.7 61 3.1 NNE 13 22 7 12 - - 0.0
17/02:00am 11.7 6.6 3.2 56 3.8 NE 19 32 10 17 - - 0.0
17/01:30am 11.5 6.4 3.0 56 3.8 NE 19 28 10 15 - - 0.0
17/01:00am 10.2 6.3 3.3 62 3.0 NE 13 17 7 9 - - 0.0
17/12:30am 10.4 6.4 3.0 60 3.3 NE 13 17 7 9 - - 0.0
17/12:00am 10.8 5.7 3.1 59 3.4 NE 19 22 10 12 - - 0.0
 
Date/Time
WST
Temp
°C
App
Temp
°C
Dew
Point
°C
Rel
Hum
%
Delta-T
°C
Wind Press
QNH
hPa
Press
MSL
hPa
Rain since
9am
mm
Dir  Spd
km/h
Gust
km/h
Spd
kts
Gust
kts
16/11:30pm 11.3 6.6 3.1 57 3.6 NE 17 22 9 12 - - 0.0
16/11:00pm 12.2 7.9 3.2 54 4.0 NE 15 20 8 11 - - 0.0
16/10:30pm 12.0 8.0 3.0 54 4.0 NE 13 17 7 9 - - 0.0
16/10:00pm 12.7 8.4 3.4 53 4.2 NE 15 20 8 11 - - 0.0
16/09:30pm 11.8 7.2 3.6 57 3.7 ENE 17 19 9 10 - - 0.0
16/09:00pm 11.8 7.6 3.6 57 3.7 ENE 15 19 8 10 - - 0.0
16/08:30pm 11.8 8.0 3.8 58 3.6 ENE 13 15 7 8 - - 0.0
16/08:00pm 11.9 8.1 3.9 58 3.6 ENE 13 13 7 7 - - 0.0
16/07:30pm 11.8 8.7 3.8 58 3.6 ENE 9 11 5 6 - - 0.0
16/07:00pm 12.9 9.1 4.1 55 4.1 E 13 15 7 8 - - 0.0
16/06:30pm 13.2 9.1 4.1 54 4.2 ENE 15 17 8 9 - - 0.0

Other Formats:

Comma delimited format used in spreadsheet applications
http://www.bom.gov.au/fwo/IDW60801/IDW60801.94603.axf

JavaScript Object Notation format (JSON) in row-major order
http://www.bom.gov.au/fwo/IDW60801/IDW60801.94603.json